TimeCST,TemperatureF,Dew PointF,Humidity,Sea Level PressureIn,VisibilityMPH,Wind Direction,Wind SpeedMPH,Gust SpeedMPH,PrecipitationIn,Events,Conditions,WindDirDegrees,DateUTC
12:15 AM,30.2,21.2,69,30.18,10.0,South,10.4,-,N/A,,Scattered Clouds,190,2013-01-07 06:15:00
12:35 AM,30.2,21.2,69,30.18,10.0,South,9.2,-,N/A,,Scattered Clouds,180,2013-01-07 06:35:00
12:55 AM,30.2,21.2,69,30.18,10.0,South,8.1,-,N/A,,Clear,170,2013-01-07 06:55:00
1:15 AM,28.4,19.4,69,30.17,10.0,South,6.9,-,N/A,,Scattered Clouds,170,2013-01-07 07:15:00
1:35 AM,30.2,21.2,69,30.17,10.0,South,10.4,-,N/A,,Scattered Clouds,180,2013-01-07 07:35:00
1:55 AM,32.0,21.2,64,30.16,10.0,South,13.8,-,N/A,,Scattered Clouds,180,2013-01-07 07:55:00
2:15 AM,32.0,21.2,64,30.16,10.0,South,11.5,-,N/A,,Scattered Clouds,170,2013-01-07 08:15:00
2:35 AM,30.2,21.2,69,30.17,10.0,South,10.4,-,N/A,,Scattered Clouds,170,2013-01-07 08:35:00
2:55 AM,30.2,21.2,69,30.16,10.0,South,10.4,-,N/A,,Scattered Clouds,180,2013-01-07 08:55:00
3:15 AM,30.2,21.2,69,30.16,10.0,South,9.2,-,N/A,,Scattered Clouds,170,2013-01-07 09:15:00
3:35 AM,30.2,21.2,69,30.16,10.0,South,6.9,-,N/A,,Scattered Clouds,180,2013-01-07 09:35:00
3:55 AM,28.4,19.4,69,30.15,10.0,SSW,8.1,-,N/A,,Scattered Clouds,200,2013-01-07 09:55:00
4:15 AM,28.4,19.4,69,30.15,10.0,South,4.6,-,N/A,,Scattered Clouds,180,2013-01-07 10:15:00
4:35 AM,28.4,19.4,69,30.14,10.0,South,3.5,-,N/A,,Scattered Clouds,190,2013-01-07 10:35:00
4:55 AM,28.4,19.4,69,30.13,10.0,South,6.9,-,N/A,,Scattered Clouds,180,2013-01-07 10:55:00
5:15 AM,28.4,21.2,74,30.12,10.0,South,10.4,-,N/A,,Scattered Clouds,170,2013-01-07 11:15:00
5:35 AM,30.2,21.2,69,30.11,10.0,South,13.8,18.4,N/A,,Scattered Clouds,170,2013-01-07 11:35:00
6:15 AM,32.0,21.2,64,30.09,10.0,South,13.8,-,N/A,,Scattered Clouds,180,2013-01-07 12:15:00
6:35 AM,32.0,21.2,64,30.08,10.0,South,15.0,20.7,N/A,,Scattered Clouds,170,2013-01-07 12:35:00
6:55 AM,33.8,21.2,60,30.08,10.0,South,17.3,-,N/A,,Scattered Clouds,180,2013-01-07 12:55:00
7:15 AM,33.8,21.2,60,30.05,10.0,South,23.0,27.6,N/A,,Scattered Clouds,180,2013-01-07 13:15:00
7:35 AM,35.6,21.2,56,30.07,10.0,South,20.7,25.3,N/A,,Scattered Clouds,190,2013-01-07 13:35:00
7:55 AM,33.8,21.2,60,30.07,10.0,South,12.7,-,N/A,,Clear,190,2013-01-07 13:55:00
8:35 AM,35.6,23.0,60,30.09,10.0,South,8.1,-,N/A,,Clear,190,2013-01-07 14:35:00
8:55 AM,35.6,23.0,60,30.08,10.0,SSW,4.6,-,N/A,,Clear,200,2013-01-07 14:55:00
9:15 AM,39.2,24.8,56,30.07,10.0,South,12.7,-,N/A,,Clear,190,2013-01-07 15:15:00
9:35 AM,42.8,24.8,49,30.08,10.0,SSW,16.1,23.0,N/A,,Clear,200,2013-01-07 15:35:00
9:55 AM,44.6,24.8,46,30.09,10.0,SW,11.5,-,N/A,,Clear,220,2013-01-07 15:55:00
10:15 AM,44.6,24.8,46,30.09,10.0,SSW,13.8,-,N/A,,Clear,210,2013-01-07 16:15:00
10:35 AM,46.4,24.8,43,30.09,10.0,SSW,15.0,-,N/A,,Clear,210,2013-01-07 16:35:00
10:55 AM,46.4,24.8,43,30.08,10.0,SW,17.3,-,N/A,,Clear,220,2013-01-07 16:55:00
11:15 AM,48.2,24.8,40,30.07,10.0,SW,23.0,27.6,N/A,,Clear,220,2013-01-07 17:15:00
11:35 AM,48.2,24.8,40,30.06,10.0,SW,21.9,-,N/A,,Clear,220,2013-01-07 17:35:00
11:55 AM,48.2,24.8,40,30.04,10.0,SW,16.1,26.5,N/A,,Clear,220,2013-01-07 17:55:00
12:35 PM,50.0,24.8,37,30.02,10.0,SW,19.6,-,N/A,,Clear,220,2013-01-07 18:35:00
12:55 PM,50.0,24.8,37,30.01,10.0,SW,18.4,-,N/A,,Clear,230,2013-01-07 18:55:00
1:15 PM,51.8,23.0,33,30.00,10.0,WSW,24.2,29.9,N/A,,Clear,240,2013-01-07 19:15:00
1:35 PM,51.8,23.0,33,30.01,10.0,WSW,23.0,26.5,N/A,,Clear,250,2013-01-07 19:35:00
1:55 PM,51.8,23.0,33,30.00,10.0,WSW,24.2,27.6,N/A,,Clear,240,2013-01-07 19:55:00
2:15 PM,51.8,23.0,33,30.01,10.0,SW,20.7,26.5,N/A,,Scattered Clouds,230,2013-01-07 20:15:00
2:35 PM,50.0,24.8,37,30.01,10.0,WSW,15.0,-,N/A,,Scattered Clouds,240,2013-01-07 20:35:00
2:55 PM,48.2,24.8,40,30.01,10.0,West,11.5,-,N/A,,Clear,260,2013-01-07 20:55:00
3:15 PM,48.2,24.8,40,30.01,10.0,West,15.0,-,N/A,,Clear,260,2013-01-07 21:15:00
3:35 PM,48.2,26.6,43,30.02,10.0,West,9.2,-,N/A,,Clear,270,2013-01-07 21:35:00
3:55 PM,46.4,28.4,50,30.02,10.0,West,8.1,-,N/A,,Clear,280,2013-01-07 21:55:00
4:15 PM,44.6,28.4,53,30.02,10.0,West,4.6,-,N/A,,Clear,280,2013-01-07 22:15:00
4:35 PM,44.6,28.4,53,30.02,10.0,West,3.5,-,N/A,,Clear,280,2013-01-07 22:35:00
5:15 PM,42.8,26.6,53,30.01,10.0,Calm,Calm,-,N/A,,Clear,0,2013-01-07 23:15:00
5:35 PM,39.2,26.6,61,30.00,10.0,SSW,4.6,-,N/A,,Clear,210,2013-01-07 23:35:00
5:55 PM,39.2,26.6,61,30.01,10.0,Calm,Calm,-,N/A,,Scattered Clouds,0,2013-01-07 23:55:00
6:15 PM,35.6,26.6,70,30.01,10.0,Calm,Calm,-,N/A,,Scattered Clouds,0,2013-01-08 00:15:00
6:35 PM,37.4,26.6,65,30.02,10.0,Calm,Calm,-,N/A,,Scattered Clouds,0,2013-01-08 00:35:00
6:55 PM,33.8,26.6,75,30.02,10.0,Calm,Calm,-,N/A,,Scattered Clouds,0,2013-01-08 00:55:00
7:15 PM,33.8,26.6,75,30.02,10.0,East,3.5,-,N/A,,Scattered Clouds,80,2013-01-08 01:15:00
7:35 PM,33.8,24.8,70,30.02,10.0,Calm,Calm,-,N/A,,Scattered Clouds,0,2013-01-08 01:35:00
7:55 PM,30.2,24.8,80,30.02,10.0,SE,5.8,-,N/A,,Scattered Clouds,140,2013-01-08 01:55:00
8:15 PM,30.2,24.8,80,30.01,10.0,Calm,Calm,-,N/A,,Scattered Clouds,0,2013-01-08 02:15:00
8:35 PM,32.0,26.6,80,30.01,10.0,Calm,Calm,-,N/A,,Scattered Clouds,0,2013-01-08 02:35:00
8:55 PM,30.2,24.8,80,30.01,10.0,NE,4.6,-,N/A,,Scattered Clouds,40,2013-01-08 02:55:00
9:15 PM,30.2,24.8,80,30.01,10.0,ENE,5.8,-,N/A,,Scattered Clouds,60,2013-01-08 03:15:00
9:35 PM,28.4,21.2,74,30.00,10.0,NE,5.8,-,N/A,,Scattered Clouds,50,2013-01-08 03:35:00
9:55 PM,28.4,21.2,74,29.99,10.0,ESE,3.5,-,N/A,,Scattered Clouds,110,2013-01-08 03:55:00
10:15 PM,26.6,21.2,80,29.99,10.0,Calm,Calm,-,N/A,,Scattered Clouds,0,2013-01-08 04:15:00
10:35 PM,30.2,24.8,80,29.99,10.0,SE,5.8,-,N/A,,Scattered Clouds,140,2013-01-08 04:35:00
10:55 PM,30.2,24.8,80,29.99,10.0,SE,5.8,-,N/A,,Clear,140,2013-01-08 04:55:00
11:15 PM,30.2,24.8,80,29.99,10.0,SSE,5.8,-,N/A,,Scattered Clouds,150,2013-01-08 05:15:00
11:35 PM,32.0,24.8,75,29.98,10.0,SSE,5.8,-,N/A,,Scattered Clouds,150,2013-01-08 05:35:00
11:55 PM,30.2,24.8,80,29.98,10.0,Calm,Calm,-,N/A,,Scattered Clouds,0,2013-01-08 05:55:00